createdAt,value
2023-04-17T00:00:54.022Z,1017.65
2023-04-17T00:01:54.147Z,1017.66
2023-04-17T00:02:54.180Z,1017.62
2023-04-17T00:03:54.103Z,1017.62
2023-04-17T00:04:54.245Z,1017.63
2023-04-17T00:05:54.026Z,1017.68
2023-04-17T00:06:54.091Z,1017.66
2023-04-17T00:07:53.955Z,1017.62
2023-04-17T00:08:53.944Z,1017.72
2023-04-17T00:09:53.933Z,1017.66
2023-04-17T00:11:00.691Z,1017.72
2023-04-17T00:11:53.900Z,1017.70
2023-04-17T00:12:53.894Z,1017.67
2023-04-17T00:13:53.884Z,1017.71
2023-04-17T00:14:53.875Z,1017.70
2023-04-17T00:15:53.888Z,1017.67
2023-04-17T00:16:53.926Z,1017.73
2023-04-17T00:17:53.880Z,1017.68
2023-04-17T00:18:53.826Z,1017.70
2023-04-17T00:19:53.818Z,1017.70
2023-04-17T00:20:53.863Z,1017.68
2023-04-17T00:21:53.794Z,1017.66
2023-04-17T00:22:53.782Z,1017.70
2023-04-17T00:23:53.766Z,1017.70
2023-04-17T00:24:53.754Z,1017.73
2023-04-17T00:25:53.754Z,1017.68
2023-04-17T00:26:53.737Z,1017.65
2023-04-17T00:27:53.730Z,1017.67
2023-04-17T00:28:53.716Z,1017.68
2023-04-17T00:29:53.705Z,1017.67
2023-04-17T00:30:53.702Z,1017.72
2023-04-17T00:31:53.770Z,1017.73
2023-04-17T00:32:53.784Z,1017.67
2023-04-17T00:33:53.663Z,1017.66
2023-04-17T00:34:55.613Z,1017.66
2023-04-17T00:35:53.639Z,1017.70
2023-04-17T00:36:53.647Z,1017.64
2023-04-17T00:37:53.612Z,1017.68
2023-04-17T00:38:53.599Z,1017.69
2023-04-17T00:39:53.589Z,1017.59
2023-04-17T00:40:53.592Z,1017.67
2023-04-17T00:41:53.566Z,1017.69
2023-04-17T00:42:53.567Z,1017.65
2023-04-17T00:43:53.548Z,1017.72
2023-04-17T00:44:53.558Z,1017.69
2023-04-17T00:45:53.579Z,1017.71
2023-04-17T00:46:53.516Z,1017.71
2023-04-17T00:47:53.523Z,1017.69
2023-04-17T00:48:53.499Z,1017.71
2023-04-17T00:49:53.474Z,1017.68
2023-04-17T00:50:53.473Z,1017.65
2023-04-17T00:51:53.465Z,1017.69
2023-04-17T00:52:53.471Z,1017.70
2023-04-17T00:53:53.448Z,1017.70
2023-04-17T00:54:53.427Z,1017.68
2023-04-17T00:55:53.428Z,1017.73
2023-04-17T00:56:53.409Z,1017.73
2023-04-17T00:57:53.496Z,1017.71
2023-04-17T00:58:53.383Z,1017.73
2023-04-17T00:59:53.381Z,1017.72
2023-04-17T01:00:53.367Z,1017.71
2023-04-17T01:01:53.436Z,1017.79
2023-04-17T01:02:53.401Z,1017.76
2023-04-17T01:03:53.465Z,1017.73
2023-04-17T01:04:53.318Z,1017.72
2023-04-17T01:05:53.298Z,1017.71
2023-04-17T01:06:53.290Z,1017.74
2023-04-17T01:07:53.273Z,1017.75
2023-04-17T01:08:53.286Z,1017.72
2023-04-17T01:09:53.254Z,1017.73
2023-04-17T01:10:53.250Z,1017.72
2023-04-17T01:11:53.243Z,1017.69
2023-04-17T01:12:53.223Z,1017.76
2023-04-17T01:13:53.202Z,1017.75
2023-04-17T01:14:53.199Z,1017.72
2023-04-17T01:15:53.231Z,1017.75
2023-04-17T01:16:53.211Z,1017.68
2023-04-17T01:17:53.173Z,1017.71
2023-04-17T01:18:53.152Z,1017.72
2023-04-17T01:19:53.150Z,1017.73
2023-04-17T01:20:53.128Z,1017.72
2023-04-17T01:21:53.128Z,1017.72
2023-04-17T01:22:53.121Z,1017.66
2023-04-17T01:23:53.375Z,1017.65
2023-04-17T01:24:53.101Z,1017.70
2023-04-17T01:25:53.070Z,1017.72
2023-04-17T01:26:53.066Z,1017.77
2023-04-17T01:27:53.061Z,1017.72
2023-04-17T01:28:53.064Z,1017.68
2023-04-17T01:29:53.037Z,1017.64
2023-04-17T01:30:53.026Z,1017.64
2023-04-17T01:31:53.016Z,1017.69
2023-04-17T01:32:53.036Z,1017.62
2023-04-17T01:33:52.974Z,1017.65
2023-04-17T01:34:52.971Z,1017.66
2023-04-17T01:35:52.963Z,1017.66
2023-04-17T01:36:52.952Z,1017.62
2023-04-17T01:37:52.938Z,1017.62
2023-04-17T01:38:52.934Z,1017.64
2023-04-17T01:39:52.913Z,1017.64
2023-04-17T01:40:52.918Z,1017.65
2023-04-17T01:41:52.923Z,1017.69
2023-04-17T01:42:52.898Z,1017.69
2023-04-17T01:43:52.872Z,1017.68
2023-04-17T01:44:52.859Z,1017.65
2023-04-17T01:45:52.954Z,1017.66
2023-04-17T01:46:52.842Z,1017.69
2023-04-17T01:47:52.890Z,1017.70
2023-04-17T01:48:52.816Z,1017.70
2023-04-17T01:49:52.802Z,1017.68
2023-04-17T01:50:52.801Z,1017.64
2023-04-17T01:51:52.776Z,1017.67
2023-04-17T01:52:52.768Z,1017.72
2023-04-17T01:53:52.769Z,1017.70
2023-04-17T01:54:52.740Z,1017.71
2023-04-17T01:55:52.733Z,1017.70
2023-04-17T01:56:52.750Z,1017.73
2023-04-17T01:57:52.708Z,1017.67
2023-04-17T01:58:52.707Z,1017.75
2023-04-17T01:59:52.683Z,1017.68
2023-04-17T02:00:52.686Z,1017.76
2023-04-17T02:01:52.784Z,1017.71
2023-04-17T02:02:52.874Z,1017.69
2023-04-17T02:03:52.824Z,1017.72
2023-04-17T02:04:52.646Z,1017.71
2023-04-17T02:05:52.628Z,1017.83
2023-04-17T02:06:52.622Z,1017.67
2023-04-17T02:07:52.595Z,1017.72
2023-04-17T02:08:52.593Z,1017.73
2023-04-17T02:09:52.578Z,1017.76
2023-04-17T02:10:52.563Z,1017.83
2023-04-17T02:11:52.546Z,1017.83
2023-04-17T02:12:52.568Z,1017.84
2023-04-17T02:13:52.543Z,1017.82
2023-04-17T02:14:52.523Z,1017.87
2023-04-17T02:15:52.563Z,1017.87
2023-04-17T02:16:52.486Z,1017.88
2023-04-17T02:17:52.517Z,1017.85
2023-04-17T02:18:52.470Z,1017.91
2023-04-17T02:19:52.455Z,1017.89
2023-04-17T02:20:52.444Z,1017.91
2023-04-17T02:21:52.451Z,1017.94
2023-04-17T02:22:52.421Z,1017.93
2023-04-17T02:23:52.418Z,1017.89
2023-04-17T02:24:52.403Z,1017.91
2023-04-17T02:25:52.394Z,1017.93
2023-04-17T02:26:52.376Z,1017.94
2023-04-17T02:27:52.364Z,1017.94
2023-04-17T02:28:52.385Z,1017.90
2023-04-17T02:29:52.341Z,1017.92
2023-04-17T02:30:52.356Z,1017.89
2023-04-17T02:31:52.339Z,1017.90
2023-04-17T02:32:52.331Z,1017.86
2023-04-17T02:33:52.304Z,1017.89
2023-04-17T02:34:52.283Z,1017.96
2023-04-17T02:35:52.275Z,1017.89
2023-04-17T02:36:52.268Z,1017.93
2023-04-17T02:37:52.260Z,1017.85
2023-04-17T02:38:52.236Z,1017.90
2023-04-17T02:39:52.242Z,1017.89
2023-04-17T02:40:52.220Z,1017.96
2023-04-17T02:41:52.212Z,1017.88
2023-04-17T02:42:52.209Z,1017.89
2023-04-17T02:43:52.190Z,1017.96
2023-04-17T02:44:52.205Z,1017.92
2023-04-17T02:45:52.166Z,1017.95
2023-04-17T02:46:52.189Z,1017.91
2023-04-17T02:47:52.210Z,1017.93
2023-04-17T02:48:52.130Z,1017.94
2023-04-17T02:49:52.136Z,1018.04
2023-04-17T02:50:52.112Z,1017.96
2023-04-17T02:51:52.108Z,1017.96
2023-04-17T02:52:52.094Z,1017.99
2023-04-17T02:53:52.068Z,1017.92
2023-04-17T02:54:52.066Z,1017.98
2023-04-17T02:55:52.059Z,1017.95
2023-04-17T02:56:52.039Z,1017.91
2023-04-17T02:57:52.031Z,1017.95
2023-04-17T02:58:52.021Z,1017.97
2023-04-17T02:59:52.020Z,1017.97
2023-04-17T03:00:52.080Z,1017.97
2023-04-17T03:01:52.071Z,1017.91
2023-04-17T03:02:52.053Z,1017.98
2023-04-17T03:03:52.107Z,1017.97
2023-04-17T03:04:51.952Z,1018.02
2023-04-17T03:05:51.934Z,1018.04
2023-04-17T03:06:51.930Z,1018.03
2023-04-17T03:07:51.924Z,1018.04
2023-04-17T03:08:51.898Z,1018.01
2023-04-17T03:09:51.899Z,1018.00
2023-04-17T03:10:51.874Z,1018.10
2023-04-17T03:11:51.868Z,1018.12
2023-04-17T03:12:51.855Z,1018.08
2023-04-17T03:13:51.837Z,1018.06
2023-04-17T03:14:51.833Z,1018.10
2023-04-17T03:15:51.880Z,1018.15
2023-04-17T03:16:51.984Z,1018.11
2023-04-17T03:17:51.824Z,1018.12
2023-04-17T03:18:51.794Z,1018.14
2023-04-17T03:19:51.781Z,1018.13
2023-04-17T03:20:51.757Z,1018.14
2023-04-17T03:21:51.757Z,1018.14
2023-04-17T03:22:51.749Z,1018.18
2023-04-17T03:23:51.719Z,1018.24
2023-04-17T03:24:51.717Z,1018.16
2023-04-17T03:25:51.713Z,1018.19
2023-04-17T03:26:51.698Z,1018.18
2023-04-17T03:27:51.693Z,1018.16
2023-04-17T03:28:51.665Z,1018.20
2023-04-17T03:29:51.659Z,1018.21
2023-04-17T03:30:51.648Z,1018.26
2023-04-17T03:31:51.703Z,1018.23
2023-04-17T03:32:51.675Z,1018.28
2023-04-17T03:33:51.629Z,1018.28
2023-04-17T03:34:51.596Z,1018.27
2023-04-17T03:35:51.595Z,1018.29
2023-04-17T03:36:51.570Z,1018.27
2023-04-17T03:37:51.562Z,1018.33
2023-04-17T03:38:51.554Z,1018.34
2023-04-17T03:39:51.542Z,1018.35
2023-04-17T03:40:51.531Z,1018.33
2023-04-17T03:41:51.518Z,1018.32
2023-04-17T03:42:51.509Z,1018.35
2023-04-17T03:43:51.498Z,1018.27
2023-04-17T03:44:51.485Z,1018.28
2023-04-17T03:45:53.511Z,1018.32
2023-04-17T03:46:51.456Z,1018.34
2023-04-17T03:47:51.477Z,1018.35
2023-04-17T03:48:51.462Z,1018.31
2023-04-17T03:49:51.421Z,1018.35
2023-04-17T03:50:51.414Z,1018.32
2023-04-17T03:51:51.407Z,1018.32
2023-04-17T03:52:51.395Z,1018.35
2023-04-17T03:53:53.379Z,1018.33
2023-04-17T03:54:51.359Z,1018.39
2023-04-17T03:55:51.361Z,1018.29
2023-04-17T03:56:51.334Z,1018.36
2023-04-17T03:57:51.329Z,1018.34
2023-04-17T03:58:51.309Z,1018.43
2023-04-17T03:59:51.297Z,1018.43
2023-04-17T04:00:51.287Z,1018.37
2023-04-17T04:01:53.305Z,1018.42
2023-04-17T04:02:51.407Z,1018.46
2023-04-17T04:03:51.315Z,1018.40
2023-04-17T04:04:51.319Z,1018.50
2023-04-17T04:05:51.226Z,1018.48
2023-04-17T04:06:51.210Z,1018.48
2023-04-17T04:07:51.202Z,1018.47
2023-04-17T04:08:51.201Z,1018.56
2023-04-17T04:09:51.193Z,1018.45
2023-04-17T04:10:51.178Z,1018.53
2023-04-17T04:11:51.167Z,1018.52
2023-04-17T04:12:53.145Z,1018.54
2023-04-17T04:13:51.136Z,1018.50
2023-04-17T04:14:51.130Z,1018.57
2023-04-17T04:15:51.157Z,1018.54
2023-04-17T04:16:51.104Z,1018.57
2023-04-17T04:17:51.113Z,1018.57
2023-04-17T04:18:51.080Z,1018.59
2023-04-17T04:19:51.069Z,1018.58
2023-04-17T04:20:51.226Z,1018.60
2023-04-17T04:21:51.046Z,1018.59
2023-04-17T04:22:53.026Z,1018.59
2023-04-17T04:23:51.031Z,1018.56
2023-04-17T04:24:51.004Z,1018.59
2023-04-17T04:25:52.999Z,1018.62
2023-04-17T04:26:52.986Z,1018.66
2023-04-17T04:27:50.978Z,1018.64
2023-04-17T04:28:50.960Z,1018.63
2023-04-17T04:29:50.951Z,1018.64
2023-04-17T04:30:51.187Z,1018.66
2023-04-17T04:31:51.113Z,1018.66
2023-04-17T04:32:50.948Z,1018.68
2023-04-17T04:33:50.902Z,1018.64
2023-04-17T04:34:50.895Z,1018.66
2023-04-17T04:35:50.892Z,1018.64
2023-04-17T04:36:50.909Z,1018.65
2023-04-17T04:37:50.866Z,1018.66
2023-04-17T04:38:50.878Z,1018.69
2023-04-17T04:39:50.838Z,1018.68
2023-04-17T04:40:50.832Z,1018.63
2023-04-17T04:41:50.836Z,1018.64
2023-04-17T04:42:50.825Z,1018.63
2023-04-17T04:43:50.791Z,1018.65
2023-04-17T04:44:50.771Z,1018.66
2023-04-17T04:45:50.767Z,1018.70
2023-04-17T04:46:50.796Z,1018.65
2023-04-17T04:47:50.819Z,1018.71
2023-04-17T04:48:50.737Z,1018.70
2023-04-17T04:49:50.717Z,1018.70
2023-04-17T04:50:50.710Z,1018.67
2023-04-17T04:51:50.700Z,1018.66
2023-04-17T04:52:50.708Z,1018.72
2023-04-17T04:53:50.672Z,1018.63
2023-04-17T04:54:50.654Z,1018.71
2023-04-17T04:55:50.681Z,1018.76
2023-04-17T04:56:50.641Z,1018.76
2023-04-17T04:57:50.643Z,1018.76
2023-04-17T04:58:50.619Z,1018.76
2023-04-17T04:59:50.604Z,1018.77
2023-04-17T05:00:50.738Z,1018.76
2023-04-17T05:01:50.670Z,1018.72
2023-04-17T05:02:50.736Z,1018.80
2023-04-17T05:03:50.688Z,1018.80
2023-04-17T05:04:50.552Z,1018.79
2023-04-17T05:05:50.565Z,1018.87
2023-04-17T05:06:50.528Z,1018.86
2023-04-17T05:07:50.506Z,1018.82
2023-04-17T05:08:50.541Z,1018.81
2023-04-17T05:09:50.484Z,1018.89
2023-04-17T05:10:50.474Z,1018.88
2023-04-17T05:11:50.476Z,1018.98
2023-04-17T05:12:50.454Z,1018.91
2023-04-17T05:13:50.449Z,1018.92
2023-04-17T05:14:50.441Z,1018.95
2023-04-17T05:15:50.431Z,1018.98
2023-04-17T05:16:50.439Z,1018.98
2023-04-17T05:17:50.463Z,1018.99
2023-04-17T05:18:50.391Z,1019.00
2023-04-17T05:19:50.376Z,1018.99
2023-04-17T05:20:50.457Z,1019.04
2023-04-17T05:21:50.354Z,1018.95
2023-04-17T05:22:50.343Z,1019.04
2023-04-17T05:23:50.388Z,1019.01
2023-04-17T05:24:50.339Z,1019.10
2023-04-17T05:25:50.329Z,1019.09
2023-04-17T05:26:50.391Z,1019.06
2023-04-17T05:27:50.279Z,1019.09
2023-04-17T05:28:50.276Z,1019.07
2023-04-17T05:29:50.255Z,1019.13
2023-04-17T05:30:50.244Z,1019.06
2023-04-17T05:31:50.324Z,1019.09
2023-04-17T05:32:50.288Z,1019.12
2023-04-17T05:33:50.227Z,1019.08
2023-04-17T05:34:50.203Z,1019.04
2023-04-17T05:35:50.185Z,1019.07
2023-04-17T05:36:50.179Z,1019.09
2023-04-17T05:37:50.164Z,1019.10
2023-04-17T05:38:50.171Z,1019.15
2023-04-17T05:39:50.135Z,1019.09
2023-04-17T05:40:50.184Z,1019.19
2023-04-17T05:41:50.111Z,1019.19
2023-04-17T05:42:50.111Z,1019.15
2023-04-17T05:43:50.099Z,1019.20
2023-04-17T05:44:50.107Z,1019.20
2023-04-17T05:45:50.093Z,1019.23
2023-04-17T05:46:50.064Z,1019.25
2023-04-17T05:47:50.073Z,1019.21
2023-04-17T05:48:50.047Z,1019.28
2023-04-17T05:49:50.017Z,1019.18
2023-04-17T05:50:50.001Z,1019.22
2023-04-17T05:51:50.007Z,1019.24
2023-04-17T05:52:49.981Z,1019.31
2023-04-17T05:53:49.987Z,1019.27
2023-04-17T05:54:49.958Z,1019.26
2023-04-17T05:55:49.952Z,1019.33
2023-04-17T05:56:49.987Z,1019.27
2023-04-17T05:57:49.923Z,1019.26
2023-04-17T05:58:49.919Z,1019.27
2023-04-17T05:59:49.907Z,1019.31
2023-04-17T06:00:49.890Z,1019.27
2023-04-17T06:01:49.923Z,1019.26
2023-04-17T06:02:50.028Z,1019.29
2023-04-17T06:03:50.079Z,1019.29
2023-04-17T06:04:50.089Z,1019.30
2023-04-17T06:05:49.891Z,1019.23
2023-04-17T06:06:49.833Z,1019.29
2023-04-17T06:07:49.816Z,1019.30
2023-04-17T06:08:49.815Z,1019.28
2023-04-17T06:09:49.791Z,1019.29
2023-04-17T06:10:49.782Z,1019.29
2023-04-17T06:11:49.769Z,1019.26
2023-04-17T06:12:49.894Z,1019.31
2023-04-17T06:13:49.748Z,1019.33
2023-04-17T06:14:49.828Z,1019.34
2023-04-17T06:15:49.717Z,1019.29
2023-04-17T06:16:49.718Z,1019.34
2023-04-17T06:17:49.803Z,1019.39
2023-04-17T06:18:49.681Z,1019.37
2023-04-17T06:19:49.679Z,1019.40
2023-04-17T06:20:49.866Z,1019.48
2023-04-17T06:21:49.654Z,1019.44
2023-04-17T06:22:49.662Z,1019.49
2023-04-17T06:23:49.727Z,1019.43
2023-04-17T06:24:49.616Z,1019.44
2023-04-17T06:25:49.636Z,1019.51
2023-04-17T06:26:49.599Z,1019.44
2023-04-17T06:27:49.583Z,1019.49
2023-04-17T06:28:49.588Z,1019.51
2023-04-17T06:29:49.573Z,1019.52
2023-04-17T06:30:49.558Z,1019.55
2023-04-17T06:31:49.531Z,1019.55
2023-04-17T06:32:49.549Z,1019.55
2023-04-17T06:33:49.508Z,1019.50
2023-04-17T06:34:58.981Z,1019.56
2023-04-17T06:35:49.498Z,1019.52
2023-04-17T06:36:49.476Z,1019.53
2023-04-17T06:37:49.462Z,1019.56
2023-04-17T06:38:49.458Z,1019.61
2023-04-17T06:39:49.441Z,1019.55
2023-04-17T06:40:50.801Z,1019.55
2023-04-17T06:41:49.413Z,1019.56
2023-04-17T06:42:49.417Z,1019.59
2023-04-17T06:43:49.395Z,1019.56
2023-04-17T06:44:49.402Z,1019.56
2023-04-17T06:45:49.383Z,1019.60
2023-04-17T06:46:49.456Z,1019.60
2023-04-17T06:47:49.390Z,1019.55
2023-04-17T06:48:49.338Z,1019.58
2023-04-17T06:49:49.337Z,1019.61
2023-04-17T06:50:49.315Z,1019.59
2023-04-17T06:51:49.303Z,1019.60
2023-04-17T06:52:49.291Z,1019.60
2023-04-17T06:53:49.293Z,1019.55
2023-04-17T06:54:49.262Z,1019.55
2023-04-17T06:55:49.255Z,1019.64
2023-04-17T06:56:49.245Z,1019.63
2023-04-17T06:57:49.237Z,1019.66
2023-04-17T06:58:49.232Z,1019.66
2023-04-17T06:59:49.210Z,1019.64
2023-04-17T07:00:49.220Z,1019.66
2023-04-17T07:01:49.201Z,1019.69
2023-04-17T07:02:49.257Z,1019.69
2023-04-17T07:03:49.358Z,1019.67
2023-04-17T07:04:49.427Z,1019.70
2023-04-17T07:05:49.142Z,1019.68
2023-04-17T07:06:49.128Z,1019.69
2023-04-17T07:07:49.118Z,1019.74
2023-04-17T07:08:49.098Z,1019.72
2023-04-17T07:09:49.113Z,1019.77
2023-04-17T07:10:49.091Z,1019.73
2023-04-17T07:11:49.080Z,1019.80
2023-04-17T07:12:49.056Z,1019.80
2023-04-17T07:13:49.044Z,1019.80
2023-04-17T07:14:49.037Z,1019.82
2023-04-17T07:15:49.136Z,1019.84
2023-04-17T07:16:49.182Z,1019.84
2023-04-17T07:17:49.030Z,1019.78
2023-04-17T07:18:48.989Z,1019.75
2023-04-17T07:19:48.981Z,1019.80
2023-04-17T07:20:48.960Z,1019.79
2023-04-17T07:21:48.958Z,1019.88
2023-04-17T07:22:48.950Z,1019.81
2023-04-17T07:23:48.985Z,1019.89
2023-04-17T07:24:48.928Z,1019.94
2023-04-17T07:25:48.920Z,1019.93
2023-04-17T07:26:48.892Z,1019.96
2023-04-17T07:27:48.877Z,1019.97
2023-04-17T07:28:48.871Z,1019.98
2023-04-17T07:29:48.863Z,1019.98
2023-04-17T07:30:48.857Z,1019.90
2023-04-17T07:31:48.891Z,1020.00
2023-04-17T07:32:48.974Z,1019.95
2023-04-17T07:33:48.832Z,1019.99
2023-04-17T07:34:48.818Z,1019.91
2023-04-17T07:35:48.812Z,1020.00
2023-04-17T07:36:48.780Z,1020.07
2023-04-17T07:37:48.768Z,1020.04
2023-04-17T07:38:48.768Z,1020.03
2023-04-17T07:39:48.766Z,1020.05
2023-04-17T07:40:48.745Z,1020.08
2023-04-17T07:41:48.722Z,1020.06
2023-04-17T07:42:48.714Z,1020.09
2023-04-17T07:43:48.701Z,1020.10
2023-04-17T07:44:48.695Z,1020.13
2023-04-17T07:45:48.684Z,1020.14
2023-04-17T07:46:48.776Z,1020.13
2023-04-17T07:47:48.732Z,1020.12
2023-04-17T07:48:48.671Z,1020.15
2023-04-17T07:49:48.679Z,1020.12
2023-04-17T07:50:48.631Z,1020.25
2023-04-17T07:51:48.620Z,1020.18
2023-04-17T07:52:48.597Z,1020.20
2023-04-17T07:53:48.594Z,1020.23
2023-04-17T07:54:48.588Z,1020.19
2023-04-17T07:55:48.567Z,1020.25
2023-04-17T07:56:48.554Z,1020.23
2023-04-17T07:57:48.557Z,1020.20
2023-04-17T07:58:48.540Z,1020.27
2023-04-17T07:59:48.523Z,1020.26
2023-04-17T08:00:48.523Z,1020.21
2023-04-17T08:01:48.556Z,1020.23
2023-04-17T08:02:48.619Z,1020.18
2023-04-17T08:03:48.717Z,1020.19
2023-04-17T08:04:48.704Z,1020.27
2023-04-17T08:05:48.460Z,1020.32
2023-04-17T08:06:48.448Z,1020.29
2023-04-17T08:07:48.429Z,1020.26
2023-04-17T08:08:48.428Z,1020.29
2023-04-17T08:09:48.407Z,1020.31
2023-04-17T08:10:48.405Z,1020.26
2023-04-17T08:11:56.846Z,1020.31
2023-04-17T08:12:48.376Z,1020.27
2023-04-17T08:13:48.371Z,1020.30
2023-04-17T08:14:48.352Z,1020.32
2023-04-17T08:15:48.343Z,1020.32
2023-04-17T08:16:48.415Z,1020.32
2023-04-17T08:17:48.391Z,1020.38
2023-04-17T08:18:48.308Z,1020.43
2023-04-17T08:19:48.310Z,1020.46
2023-04-17T08:20:48.310Z,1020.39
2023-04-17T08:21:48.289Z,1020.36
2023-04-17T08:22:48.272Z,1020.44
2023-04-17T08:23:48.268Z,1020.40
2023-04-17T08:24:48.249Z,1020.42
2023-04-17T08:25:48.241Z,1020.46
2023-04-17T08:26:48.218Z,1020.49
2023-04-17T08:27:48.214Z,1020.50
2023-04-17T08:28:48.207Z,1020.47
2023-04-17T08:29:48.188Z,1020.47
2023-04-17T08:30:48.227Z,1020.50
2023-04-17T08:31:48.177Z,1020.47
2023-04-17T08:32:48.219Z,1020.52
2023-04-17T08:33:48.145Z,1020.52
2023-04-17T08:34:48.137Z,1020.50
2023-04-17T08:35:48.121Z,1020.48
2023-04-17T08:36:48.151Z,1020.53
2023-04-17T08:37:48.103Z,1020.51
2023-04-17T08:38:48.105Z,1020.47
2023-04-17T08:39:48.078Z,1020.48
2023-04-17T08:40:48.065Z,1020.52
2023-04-17T08:41:48.088Z,1020.47
2023-04-17T08:42:48.282Z,1020.50
2023-04-17T08:43:48.033Z,1020.54
2023-04-17T08:44:48.033Z,1020.49
2023-04-17T08:45:48.019Z,1020.47
2023-04-17T08:46:47.994Z,1020.51
2023-04-17T08:47:48.026Z,1020.54
2023-04-17T08:48:47.978Z,1020.55
2023-04-17T08:49:47.969Z,1020.57
2023-04-17T08:50:47.954Z,1020.55
2023-04-17T08:51:47.954Z,1020.49
2023-04-17T08:52:47.945Z,1020.61
2023-04-17T08:53:47.987Z,1020.56
2023-04-17T08:54:50.562Z,1020.61
2023-04-17T08:55:47.896Z,1020.56
2023-04-17T08:56:47.884Z,1020.56
2023-04-17T08:57:47.883Z,1020.58
2023-04-17T08:58:47.856Z,1020.59
2023-04-17T08:59:47.852Z,1020.61
2023-04-17T09:00:47.838Z,1020.56
2023-04-17T09:01:47.863Z,1020.61
2023-04-17T09:02:47.969Z,1020.62
2023-04-17T09:03:47.957Z,1020.60
2023-04-17T09:04:47.890Z,1020.54
2023-04-17T09:05:47.783Z,1020.57
2023-04-17T09:06:47.774Z,1020.64
2023-04-17T09:07:48.405Z,1020.62
2023-04-17T09:08:47.775Z,1020.58
2023-04-17T09:09:47.748Z,1020.60
2023-04-17T09:10:47.759Z,1020.57
2023-04-17T09:11:47.711Z,1020.63
2023-04-17T09:12:47.703Z,1020.60
2023-04-17T09:13:47.693Z,1020.60
2023-04-17T09:14:47.680Z,1020.67
2023-04-17T09:15:47.686Z,1020.68
2023-04-17T09:16:47.660Z,1020.63
2023-04-17T09:17:47.704Z,1020.56
2023-04-17T09:18:47.643Z,1020.59
2023-04-17T09:19:47.623Z,1020.70
2023-04-17T09:20:47.618Z,1020.68
2023-04-17T09:21:47.600Z,1020.69
2023-04-17T09:22:47.591Z,1020.62
2023-04-17T09:23:47.583Z,1020.61
2023-04-17T09:24:47.592Z,1020.67
2023-04-17T09:25:47.568Z,1020.67
2023-04-17T09:26:47.556Z,1020.67
2023-04-17T09:27:47.531Z,1020.67
2023-04-17T09:28:47.523Z,1020.70
2023-04-17T09:29:47.527Z,1020.77
2023-04-17T09:30:47.507Z,1020.72
2023-04-17T09:31:47.510Z,1020.69
2023-04-17T09:32:47.554Z,1020.63
2023-04-17T09:33:47.477Z,1020.70
2023-04-17T09:34:47.480Z,1020.60
2023-04-17T09:35:47.443Z,1020.67
2023-04-17T09:36:47.433Z,1020.68
2023-04-17T09:37:47.422Z,1020.65
2023-04-17T09:38:47.414Z,1020.59
2023-04-17T09:39:47.396Z,1020.59
2023-04-17T09:40:47.447Z,1020.59
2023-04-17T09:41:47.384Z,1020.63
2023-04-17T09:42:47.367Z,1020.56
2023-04-17T09:43:47.363Z,1020.60
2023-04-17T09:44:47.346Z,1020.67
2023-04-17T09:45:47.336Z,1020.52
2023-04-17T09:46:47.384Z,1020.58
2023-04-17T09:47:47.387Z,1020.69
2023-04-17T09:48:47.300Z,1020.52
2023-04-17T09:49:47.299Z,1020.52
2023-04-17T09:50:47.278Z,1020.70
2023-04-17T09:51:47.270Z,1020.65
2023-04-17T09:52:47.247Z,1020.70
2023-04-17T09:53:47.243Z,1020.63
2023-04-17T09:54:47.254Z,1020.60
2023-04-17T09:55:47.213Z,1020.63
2023-04-17T09:56:47.339Z,1020.67
2023-04-17T09:57:47.196Z,1020.60
2023-04-17T09:58:47.188Z,1020.58
2023-04-17T09:59:47.180Z,1020.57
2023-04-17T10:00:47.231Z,1020.61
2023-04-17T10:01:47.191Z,1020.60
2023-04-17T10:02:47.303Z,1020.71
2023-04-17T10:03:47.359Z,1020.69
2023-04-17T10:04:47.116Z,1020.57
2023-04-17T10:05:47.105Z,1020.53
2023-04-17T10:06:47.093Z,1020.66
2023-04-17T10:07:47.075Z,1020.63
2023-04-17T10:08:47.080Z,1020.74
2023-04-17T10:09:47.055Z,1020.69
2023-04-17T10:10:47.077Z,1020.65
2023-04-17T10:11:47.038Z,1020.60
2023-04-17T10:12:47.045Z,1020.68
2023-04-17T10:13:47.016Z,1020.63
2023-04-17T10:14:47.006Z,1020.67
2023-04-17T10:15:47.040Z,1020.71
2023-04-17T10:16:47.029Z,1020.73
2023-04-17T10:17:46.998Z,1020.67
2023-04-17T10:18:46.962Z,1020.64
2023-04-17T10:19:46.945Z,1020.62
2023-04-17T10:20:46.930Z,1020.65
2023-04-17T10:21:46.916Z,1020.68
2023-04-17T10:22:46.926Z,1020.61
2023-04-17T10:23:46.897Z,1020.67
2023-04-17T10:24:46.889Z,1020.68
2023-04-17T10:25:46.870Z,1020.62
2023-04-17T10:26:46.867Z,1020.62
2023-04-17T10:27:46.851Z,1020.61
2023-04-17T10:28:46.965Z,1020.54
2023-04-17T10:29:46.835Z,1020.61
2023-04-17T10:30:46.852Z,1020.67
2023-04-17T10:31:46.877Z,1020.57
2023-04-17T10:32:46.826Z,1020.61
2023-04-17T10:33:46.814Z,1020.67
2023-04-17T10:34:46.771Z,1020.67
2023-04-17T10:35:46.768Z,1020.65
2023-04-17T10:36:46.746Z,1020.59
2023-04-17T10:37:46.753Z,1020.65
2023-04-17T10:38:46.726Z,1020.59
2023-04-17T10:39:46.717Z,1020.53
2023-04-17T10:40:46.713Z,1020.56
2023-04-17T10:41:46.699Z,1020.48
2023-04-17T10:42:46.687Z,1020.53
2023-04-17T10:43:46.680Z,1020.56
2023-04-17T10:44:46.687Z,1020.53
2023-04-17T10:45:46.716Z,1020.48
2023-04-17T10:46:46.643Z,1020.57
2023-04-17T10:47:46.634Z,1020.56
2023-04-17T10:48:46.677Z,1020.52
2023-04-17T10:49:46.609Z,1020.44
2023-04-17T10:50:46.594Z,1020.51
2023-04-17T10:51:46.580Z,1020.50
2023-04-17T10:52:46.570Z,1020.54
2023-04-17T10:53:46.559Z,1020.53
2023-04-17T10:54:46.541Z,1020.57
2023-04-17T10:55:46.537Z,1020.58
2023-04-17T10:56:46.638Z,1020.52
2023-04-17T10:57:46.509Z,1020.57
2023-04-17T10:58:46.499Z,1020.51
2023-04-17T10:59:46.526Z,1020.55
2023-04-17T11:00:46.638Z,1020.62
2023-04-17T11:01:46.514Z,1020.49
2023-04-17T11:02:46.557Z,1020.56
2023-04-17T11:03:46.505Z,1020.56
2023-04-17T11:04:46.525Z,1020.46
2023-04-17T11:05:46.423Z,1020.55
2023-04-17T11:06:46.414Z,1020.53
2023-04-17T11:07:46.408Z,1020.60
2023-04-17T11:08:46.393Z,1020.49
2023-04-17T11:09:46.381Z,1020.52
2023-04-17T11:10:46.396Z,1020.57
2023-04-17T11:11:46.351Z,1020.58
2023-04-17T11:12:46.357Z,1020.53
2023-04-17T11:13:46.344Z,1020.62
2023-04-17T11:14:46.325Z,1020.52
2023-04-17T11:15:46.361Z,1020.56
2023-04-17T11:16:46.452Z,1020.64
2023-04-17T11:17:46.317Z,1020.55
2023-04-17T11:18:46.281Z,1020.58
2023-04-17T11:19:46.882Z,1020.52
2023-04-17T11:20:46.269Z,1020.56
2023-04-17T11:21:46.250Z,1020.56
2023-04-17T11:22:46.262Z,1020.59
2023-04-17T11:23:46.224Z,1020.60
2023-04-17T11:24:46.214Z,1020.55
2023-04-17T11:25:46.194Z,1020.51
2023-04-17T11:26:46.182Z,1020.45
2023-04-17T11:27:46.186Z,1020.51
2023-04-17T11:28:46.167Z,1020.51
2023-04-17T11:29:46.156Z,1020.51
2023-04-17T11:30:46.204Z,1020.48
2023-04-17T11:31:46.218Z,1020.49
2023-04-17T11:32:46.176Z,1020.58
2023-04-17T11:33:46.327Z,1020.58
2023-04-17T11:34:46.103Z,1020.60
2023-04-17T11:35:46.094Z,1020.55
2023-04-17T11:36:46.074Z,1020.57
2023-04-17T11:37:46.072Z,1020.64
2023-04-17T11:38:46.058Z,1020.60
2023-04-17T11:39:46.036Z,1020.70
2023-04-17T11:40:46.056Z,1020.62
2023-04-17T11:41:46.018Z,1020.58
2023-04-17T11:42:46.017Z,1020.61
2023-04-17T11:43:45.995Z,1020.69
2023-04-17T11:44:45.984Z,1020.65
2023-04-17T11:45:46.004Z,1020.63
2023-04-17T11:46:46.104Z,1020.71
2023-04-17T11:47:45.967Z,1020.75
2023-04-17T11:48:46.069Z,1020.74
2023-04-17T11:49:45.940Z,1020.82
2023-04-17T11:50:45.918Z,1020.78
2023-04-17T11:51:45.910Z,1020.64
2023-04-17T11:52:47.742Z,1020.78
2023-04-17T11:53:45.888Z,1020.74
2023-04-17T11:54:45.879Z,1020.73
2023-04-17T11:55:45.979Z,1020.73
2023-04-17T11:56:45.864Z,1020.71
2023-04-17T11:57:45.861Z,1020.67
2023-04-17T11:58:45.826Z,1020.73
2023-04-17T11:59:45.829Z,1020.72
2023-04-17T12:00:45.807Z,1020.78
2023-04-17T12:01:45.797Z,1020.75
2023-04-17T12:02:45.916Z,1020.73
2023-04-17T12:03:45.976Z,1020.75
2023-04-17T12:04:45.916Z,1020.75
2023-04-17T12:05:45.945Z,1020.77